This is the latest recevied weather packets stored in our database for station/object W1REE. If no packets are shown the sender has not sent any weather packets the latest 10 day(s).
| Time | Temp. | Humidity | Pressure | Rain* | Wind** | Luminosity | Snow |
|---|---|---|---|---|---|---|---|
| 1777310750 | 16.11° C | 32% | 1013 hPa | 0 mm | - | 1080 W/m² | - |
| 1777310447 | 15° C | 35% | 1013.4 hPa | 0 mm | - | 1077 W/m² | - |
| 1777310144 | 15° C | 35% | 1013 hPa | 0 mm | - | 1025 W/m² | - |
| 1777308935 | 14.44° C | 37% | 1013.1 hPa | 0 mm | - | 825 W/m² | - |
| 1777308021 | 13.33° C | 38% | 1013 hPa | 0 mm | - | 908 W/m² | - |
| 1777307720 | 13.33° C | 38% | 1012.8 hPa | 0 mm | - | 890 W/m² | - |
| 1777306810 | 15° C | 35% | 1012.7 hPa | 0 mm | - | 445 W/m² | - |
| 1777305595 | 15° C | 24% | 1011.8 hPa | 0 mm | - | 625 W/m² | - |
| 1777304990 | 16.67° C | 22% | 1012.1 hPa | 0 mm | - | 355 W/m² | - |
| 1777304384 | 15° C | 26% | 1011.9 hPa | 0 mm | - | 716 W/m² | - |
| 1777304081 | 15° C | 27% | 1011.8 hPa | 0 mm | - | 697 W/m² | - |
| 1777303777 | 14.44° C | 27% | 1011.7 hPa | 0 mm | - | 677 W/m² | - |
| 1777303475 | 14.44° C | 26% | 1011.6 hPa | 0 mm | - | 665 W/m² | - |
| 1777302871 | 15.56° C | 25% | 1011.9 hPa | 0 mm | - | 619 W/m² | - |
| 1777302567 | 15° C | 26% | 1011.9 hPa | 0 mm | - | 599 W/m² | - |
| 1777301661 | 13.89° C | 30% | 1011.7 hPa | 0 mm | - | 321 W/m² | - |
| 1777300751 | 14.44° C | 27% | 1012.1 hPa | 0 mm | - | 308 W/m² | - |
| 1777300449 | 14.44° C | 27% | 1011.8 hPa | 0 mm | - | 404 W/m² | - |
| 1777300146 | 13.89° C | 29% | 1011.9 hPa | 0 mm | - | 403 W/m² | - |
| 1777299842 | 12.78° C | 29% | 1011.6 hPa | 0 mm | - | 370 W/m² | - |
| 1777299540 | 12.22° C | 30% | 1011.7 hPa | 0 mm | - | 353 W/m² | - |
| 1777299238 | 12.22° C | 31% | 1011.8 hPa | 0 mm | - | 324 W/m² | - |
| 1777298934 | 12.22° C | 31% | 1011.8 hPa | 0 mm | - | 307 W/m² | - |
| 1777298632 | 11.67° C | 32% | 1011.6 hPa | 0 mm | - | 273 W/m² | - |
| 1777298328 | 11.11° C | 33% | 1011.8 hPa | 0 mm | - | 251 W/m² | - |
* Rain latest hour (hover to see other rain measurements)
** Current wind speed in m/s (hover to see current wind gust speed)